createdAt,value
2018-02-10T00:00:29.796Z,86.18
2018-02-10T00:01:29.772Z,85.61
2018-02-10T00:02:29.772Z,85.70
2018-02-10T00:03:29.786Z,85.89
2018-02-10T00:04:29.772Z,85.89
2018-02-10T00:05:29.781Z,85.99
2018-02-10T00:06:29.728Z,85.80
2018-02-10T00:07:29.710Z,85.70
2018-02-10T00:08:29.727Z,85.89
2018-02-10T00:09:29.705Z,86.08
2018-02-10T00:10:29.686Z,85.99
2018-02-10T00:11:29.685Z,85.99
2018-02-10T00:12:29.673Z,85.70
2018-02-10T00:13:29.647Z,85.89
2018-02-10T00:14:29.642Z,86.36
2018-02-10T00:15:29.632Z,86.36
2018-02-10T00:16:29.614Z,85.99
2018-02-10T00:17:29.624Z,86.18
2018-02-10T00:18:29.602Z,86.08
2018-02-10T00:19:29.604Z,85.89
2018-02-10T00:20:29.578Z,86.36
2018-02-10T00:21:29.568Z,86.08
2018-02-10T00:22:29.554Z,86.36
2018-02-10T00:23:29.548Z,86.36
2018-02-10T00:24:29.525Z,85.70
2018-02-10T00:25:29.559Z,85.89
2018-02-10T00:26:29.510Z,85.89
2018-02-10T00:27:29.513Z,85.80
2018-02-10T00:28:29.489Z,85.89
2018-02-10T00:29:29.509Z,85.89
2018-02-10T00:30:29.479Z,85.61
2018-02-10T00:31:29.465Z,85.89
2018-02-10T00:32:29.456Z,85.61
2018-02-10T00:33:29.452Z,85.42
2018-02-10T00:34:29.430Z,85.61
2018-02-10T00:35:29.423Z,85.89
2018-02-10T00:36:29.418Z,85.80
2018-02-10T00:37:29.423Z,86.08
2018-02-10T00:38:29.391Z,85.70
2018-02-10T00:39:29.391Z,85.70
2018-02-10T00:40:29.367Z,85.42
2018-02-10T00:41:29.379Z,85.42
2018-02-10T00:42:29.342Z,85.51
2018-02-10T00:43:29.331Z,85.89
2018-02-10T00:44:29.326Z,85.61
2018-02-10T00:45:29.329Z,85.51
2018-02-10T00:46:29.294Z,85.70
2018-02-10T00:47:29.299Z,85.51
2018-02-10T00:48:29.279Z,86.08
2018-02-10T00:49:29.281Z,85.70
2018-02-10T00:50:29.276Z,85.70
2018-02-10T00:51:29.245Z,85.99
2018-02-10T00:52:29.261Z,85.70
2018-02-10T00:53:29.242Z,85.70
2018-02-10T00:54:29.231Z,85.99
2018-02-10T00:55:29.221Z,85.80
2018-02-10T00:56:29.199Z,86.18
2018-02-10T00:57:29.200Z,85.61
2018-02-10T00:58:29.208Z,85.80
2018-02-10T00:59:29.186Z,86.08
2018-02-10T01:00:29.169Z,85.89
2018-02-10T01:01:29.153Z,85.89
2018-02-10T01:02:29.174Z,85.89
2018-02-10T01:03:29.124Z,85.61
2018-02-10T01:04:29.104Z,85.61
2018-02-10T01:05:29.125Z,85.80
2018-02-10T01:06:29.103Z,85.70
2018-02-10T01:07:29.093Z,86.27
2018-02-10T01:08:29.067Z,85.70
2018-02-10T01:09:29.092Z,85.61
2018-02-10T01:10:29.065Z,86.18
2018-02-10T01:11:29.047Z,86.08
2018-02-10T01:12:29.029Z,85.99
2018-02-10T01:13:29.011Z,85.99
2018-02-10T01:14:29.010Z,86.83
2018-02-10T01:15:28.994Z,86.27
2018-02-10T01:16:28.983Z,86.65
2018-02-10T01:17:28.997Z,86.46
2018-02-10T01:18:29.001Z,86.65
2018-02-10T01:19:28.954Z,87.02
2018-02-10T01:20:28.956Z,86.93
2018-02-10T01:21:28.947Z,87.12
2018-02-10T01:22:28.942Z,87.31
2018-02-10T01:23:28.916Z,87.21
2018-02-10T01:24:28.902Z,87.31
2018-02-10T01:25:28.892Z,86.83
2018-02-10T01:26:28.905Z,87.12
2018-02-10T01:27:28.902Z,86.93
2018-02-10T01:28:28.898Z,87.40
2018-02-10T01:29:28.864Z,87.31
2018-02-10T01:30:28.858Z,86.93
2018-02-10T01:31:28.837Z,87.40
2018-02-10T01:32:28.820Z,87.40
2018-02-10T01:33:28.821Z,87.98
2018-02-10T01:34:28.831Z,88.17
2018-02-10T01:35:28.801Z,87.69
2018-02-10T01:36:28.779Z,87.59
2018-02-10T01:37:28.770Z,88.17
2018-02-10T01:38:28.772Z,87.88
2018-02-10T01:39:28.754Z,88.45
2018-02-10T01:40:28.745Z,88.45
2018-02-10T01:41:28.723Z,88.45
2018-02-10T01:42:28.734Z,88.45
2018-02-10T01:43:28.731Z,88.92
2018-02-10T01:44:28.694Z,88.73
2018-02-10T01:45:28.697Z,89.20
2018-02-10T01:46:28.688Z,89.39
2018-02-10T01:47:28.665Z,88.92
2018-02-10T01:48:28.651Z,88.92
2018-02-10T01:49:28.644Z,88.73
2018-02-10T01:50:28.642Z,88.92
2018-02-10T01:51:28.625Z,89.11
2018-02-10T01:52:28.653Z,89.20
2018-02-10T01:53:28.594Z,89.01
2018-02-10T01:54:28.611Z,88.82
2018-02-10T01:55:28.592Z,89.49
2018-02-10T01:56:28.587Z,89.58
2018-02-10T01:57:28.661Z,89.68
2018-02-10T01:58:28.596Z,89.58
2018-02-10T01:59:28.558Z,89.68
2018-02-10T02:00:28.521Z,89.77
2018-02-10T02:01:28.532Z,89.58
2018-02-10T02:02:28.513Z,89.68
2018-02-10T02:03:28.511Z,90.34
2018-02-10T02:04:28.507Z,90.25
2018-02-10T02:05:28.472Z,90.25
2018-02-10T02:06:28.503Z,90.34
2018-02-10T02:07:28.451Z,89.77
2018-02-10T02:08:28.451Z,90.34
2018-02-10T02:09:28.449Z,90.81
2018-02-10T02:10:28.426Z,90.63
2018-02-10T02:11:28.412Z,90.63
2018-02-10T02:12:28.411Z,91.00
2018-02-10T02:13:28.411Z,91.38
2018-02-10T02:14:28.383Z,91.29
2018-02-10T02:15:28.397Z,91.29
2018-02-10T02:16:28.372Z,91.48
2018-02-10T02:17:28.343Z,91.95
2018-02-10T02:18:28.324Z,91.86
2018-02-10T02:19:28.382Z,91.67
2018-02-10T02:20:28.337Z,92.14
2018-02-10T02:21:28.304Z,91.95
2018-02-10T02:22:28.290Z,92.24
2018-02-10T02:23:28.325Z,92.43
2018-02-10T02:24:28.276Z,92.14
2018-02-10T02:25:28.282Z,91.95
2018-02-10T02:26:28.267Z,92.43
2018-02-10T02:27:28.253Z,91.95
2018-02-10T02:28:28.235Z,92.43
2018-02-10T02:29:28.214Z,92.52
2018-02-10T02:30:28.244Z,92.99
2018-02-10T02:31:28.193Z,92.80
2018-02-10T02:32:28.206Z,92.71
2018-02-10T02:33:28.178Z,92.61
2018-02-10T02:34:28.180Z,92.71
2018-02-10T02:35:28.195Z,92.52
2018-02-10T02:36:29.742Z,92.43
2018-02-10T02:37:28.129Z,92.43
2018-02-10T02:38:28.142Z,93.46
2018-02-10T02:39:28.109Z,93.65
2018-02-10T02:40:28.105Z,92.52
2018-02-10T02:41:28.085Z,93.46
2018-02-10T02:42:28.082Z,93.27
2018-02-10T02:43:28.099Z,92.90
2018-02-10T02:44:28.060Z,93.18
2018-02-10T02:45:28.079Z,93.46
2018-02-10T02:46:28.030Z,93.18
2018-02-10T02:47:28.031Z,93.08
2018-02-10T02:48:28.025Z,93.46
2018-02-10T02:49:28.000Z,93.27
2018-02-10T02:50:27.991Z,93.46
2018-02-10T02:51:28.012Z,93.75
2018-02-10T02:52:27.998Z,93.08
2018-02-10T02:53:28.005Z,93.46
2018-02-10T02:54:27.982Z,93.46
2018-02-10T02:55:27.951Z,93.65
2018-02-10T02:56:27.948Z,92.99
2018-02-10T02:57:27.946Z,93.65
2018-02-10T02:58:27.911Z,93.65
2018-02-10T02:59:27.905Z,93.46
2018-02-10T03:00:27.916Z,93.18
2018-02-10T03:01:27.915Z,92.99
2018-02-10T03:02:27.860Z,92.99
2018-02-10T03:03:27.865Z,93.37
2018-02-10T03:04:27.839Z,93.94
2018-02-10T03:05:27.871Z,93.65
2018-02-10T03:06:27.854Z,94.04
2018-02-10T03:07:27.846Z,93.08
2018-02-10T03:08:27.859Z,93.37
2018-02-10T03:09:27.789Z,93.18
2018-02-10T03:10:27.791Z,93.27
2018-02-10T03:11:27.772Z,93.08
2018-02-10T03:12:27.770Z,93.27
2018-02-10T03:13:27.810Z,93.46
2018-02-10T03:14:27.734Z,93.18
2018-02-10T03:15:27.758Z,93.08
2018-02-10T03:16:27.744Z,93.37
2018-02-10T03:17:27.724Z,93.27
2018-02-10T03:18:27.729Z,93.18
2018-02-10T03:19:27.687Z,93.46
2018-02-10T03:20:27.710Z,93.46
2018-02-10T03:21:27.685Z,93.46
2018-02-10T03:22:27.662Z,93.37
2018-02-10T03:23:27.680Z,93.37
2018-02-10T03:24:27.645Z,93.46
2018-02-10T03:25:27.642Z,93.37
2018-02-10T03:26:27.622Z,92.99
2018-02-10T03:27:27.609Z,92.90
2018-02-10T03:28:27.594Z,93.18
2018-02-10T03:29:27.633Z,93.46
2018-02-10T03:30:27.601Z,92.71
2018-02-10T03:31:27.567Z,92.80
2018-02-10T03:32:27.559Z,92.52
2018-02-10T03:33:27.535Z,92.71
2018-02-10T03:34:27.531Z,92.52
2018-02-10T03:35:27.512Z,92.90
2018-02-10T03:36:27.519Z,92.61
2018-02-10T03:37:27.502Z,92.71
2018-02-10T03:38:27.567Z,92.52
2018-02-10T03:39:27.473Z,92.43
2018-02-10T03:40:27.468Z,92.71
2018-02-10T03:41:27.445Z,93.27
2018-02-10T03:42:27.477Z,93.27
2018-02-10T03:43:27.429Z,93.27
2018-02-10T03:44:27.422Z,93.46
2018-02-10T03:45:27.408Z,93.08
2018-02-10T03:46:27.389Z,93.08
2018-02-10T03:47:27.396Z,93.18
2018-02-10T03:48:27.384Z,93.27
2018-02-10T03:49:27.361Z,92.90
2018-02-10T03:50:27.364Z,93.18
2018-02-10T03:51:27.358Z,93.08
2018-02-10T03:52:27.330Z,93.08
2018-02-10T03:53:27.325Z,93.27
2018-02-10T03:54:27.339Z,93.37
2018-02-10T03:55:27.326Z,93.46
2018-02-10T03:56:27.293Z,92.52
2018-02-10T03:57:27.277Z,92.43
2018-02-10T03:58:27.267Z,92.52
2018-02-10T03:59:27.255Z,93.27
2018-02-10T04:00:27.263Z,93.37
2018-02-10T04:01:27.240Z,93.18
2018-02-10T04:02:27.230Z,92.99
2018-02-10T04:03:27.241Z,93.37
2018-02-10T04:04:27.238Z,93.08
2018-02-10T04:05:27.191Z,92.99
2018-02-10T04:06:27.207Z,93.18
2018-02-10T04:07:27.209Z,93.27
2018-02-10T04:08:27.181Z,93.18
2018-02-10T04:09:27.145Z,92.99
2018-02-10T04:10:27.145Z,93.46
2018-02-10T04:11:27.136Z,92.99
2018-02-10T04:12:27.137Z,92.99
2018-02-10T04:13:27.141Z,93.18
2018-02-10T04:14:27.114Z,93.08
2018-02-10T04:15:27.109Z,93.27
2018-02-10T04:16:27.091Z,93.46
2018-02-10T04:17:27.070Z,93.46
2018-02-10T04:18:27.066Z,93.27
2018-02-10T04:19:27.077Z,93.56
2018-02-10T04:20:27.054Z,93.46
2018-02-10T04:21:27.067Z,93.65
2018-02-10T04:22:27.067Z,93.46
2018-02-10T04:23:27.023Z,93.37
2018-02-10T04:24:27.013Z,93.46
2018-02-10T04:25:27.014Z,93.37
2018-02-10T04:26:27.000Z,93.46
2018-02-10T04:27:26.983Z,93.46
2018-02-10T04:28:26.999Z,93.46
2018-02-10T04:29:26.982Z,93.27
2018-02-10T04:30:26.951Z,93.18
2018-02-10T04:31:26.958Z,93.27
2018-02-10T04:32:26.905Z,92.99
2018-02-10T04:33:26.964Z,92.90
2018-02-10T04:34:26.915Z,93.18
2018-02-10T04:35:26.922Z,93.08
2018-02-10T04:36:26.890Z,93.18
2018-02-10T04:37:26.882Z,93.27
2018-02-10T04:38:26.838Z,92.99
2018-02-10T04:39:26.831Z,92.99
2018-02-10T04:40:26.828Z,92.90
2018-02-10T04:41:26.802Z,92.90
2018-02-10T04:42:26.791Z,93.46
2018-02-10T04:43:26.796Z,92.71
2018-02-10T04:44:26.820Z,93.27
2018-02-10T04:45:26.756Z,93.46
2018-02-10T04:46:26.756Z,92.43
2018-02-10T04:47:26.759Z,92.52
2018-02-10T04:48:26.738Z,92.71
2018-02-10T04:49:26.718Z,92.80
2018-02-10T04:50:26.711Z,92.61
2018-02-10T04:51:26.716Z,92.80
2018-02-10T04:52:26.690Z,92.61
2018-02-10T04:53:26.695Z,92.52
2018-02-10T04:54:26.663Z,92.80
2018-02-10T04:55:26.659Z,92.80
2018-02-10T04:56:26.644Z,92.71
2018-02-10T04:57:26.663Z,92.71
2018-02-10T04:58:26.635Z,92.80
2018-02-10T04:59:26.650Z,92.61
2018-02-10T05:00:26.634Z,92.71
2018-02-10T05:01:26.648Z,92.61
2018-02-10T05:02:26.594Z,92.71
2018-02-10T05:03:26.596Z,92.80
2018-02-10T05:04:26.574Z,92.80
2018-02-10T05:05:26.573Z,92.71
2018-02-10T05:06:26.536Z,92.80
2018-02-10T05:07:26.540Z,92.80
2018-02-10T05:08:26.514Z,92.80
2018-02-10T05:09:26.557Z,92.80
2018-02-10T05:10:26.520Z,92.52
2018-02-10T05:11:26.524Z,92.52
2018-02-10T05:12:26.531Z,92.90
2018-02-10T05:13:26.485Z,92.61
2018-02-10T05:14:26.452Z,92.90
2018-02-10T05:15:26.443Z,92.80
2018-02-10T05:16:26.479Z,92.90
2018-02-10T05:17:26.435Z,92.99
2018-02-10T05:18:26.425Z,92.90
2018-02-10T05:19:26.396Z,92.43
2018-02-10T05:20:26.441Z,92.52
2018-02-10T05:21:26.382Z,92.71
2018-02-10T05:22:26.388Z,92.52
2018-02-10T05:23:26.354Z,92.24
2018-02-10T05:24:26.338Z,91.95
2018-02-10T05:25:26.335Z,92.05
2018-02-10T05:26:26.332Z,92.43
2018-02-10T05:27:26.333Z,91.86
2018-02-10T05:28:26.318Z,91.95
2018-02-10T05:29:26.291Z,92.14
2018-02-10T05:30:26.272Z,92.14
2018-02-10T05:31:26.266Z,92.05
2018-02-10T05:32:26.271Z,92.05
2018-02-10T05:33:26.268Z,92.14
2018-02-10T05:34:26.259Z,92.05
2018-02-10T05:35:26.255Z,92.33
2018-02-10T05:36:26.208Z,91.48
2018-02-10T05:37:26.213Z,91.86
2018-02-10T05:38:26.211Z,91.86
2018-02-10T05:39:26.193Z,91.86
2018-02-10T05:40:26.186Z,91.76
2018-02-10T05:41:26.182Z,91.86
2018-02-10T05:42:26.155Z,91.48
2018-02-10T05:43:26.138Z,91.38
2018-02-10T05:44:26.182Z,91.57
2018-02-10T05:45:26.149Z,91.57
2018-02-10T05:46:26.109Z,91.00
2018-02-10T05:47:26.103Z,91.19
2018-02-10T05:48:26.082Z,90.91
2018-02-10T05:49:26.077Z,90.63
2018-02-10T05:50:26.064Z,90.81
2018-02-10T05:51:26.078Z,90.81
2018-02-10T05:52:26.052Z,90.91
2018-02-10T05:53:26.038Z,90.72
2018-02-10T05:54:26.026Z,90.44
2018-02-10T05:55:26.027Z,90.34
2018-02-10T05:56:26.000Z,90.15
2018-02-10T05:57:25.989Z,90.15
2018-02-10T05:58:25.988Z,90.63
2018-02-10T05:59:25.965Z,89.96
2018-02-10T06:00:25.951Z,90.06
2018-02-10T06:01:25.939Z,90.25
2018-02-10T06:02:25.952Z,90.25
2018-02-10T06:03:25.933Z,90.15
2018-02-10T06:04:25.908Z,89.87
2018-02-10T06:05:25.912Z,90.15
2018-02-10T06:06:25.896Z,89.87
2018-02-10T06:07:25.889Z,90.25
2018-02-10T06:08:25.892Z,89.87
2018-02-10T06:09:25.886Z,90.06
2018-02-10T06:10:25.845Z,90.15
2018-02-10T06:11:25.841Z,90.44
2018-02-10T06:12:25.822Z,90.25
2018-02-10T06:13:25.814Z,90.53
2018-02-10T06:14:25.816Z,90.44
2018-02-10T06:15:25.799Z,90.25
2018-02-10T06:16:25.799Z,90.15
2018-02-10T06:17:25.804Z,90.25
2018-02-10T06:18:25.767Z,90.25
2018-02-10T06:19:25.756Z,90.15
2018-02-10T06:20:25.752Z,90.53
2018-02-10T06:21:25.727Z,90.06
2018-02-10T06:22:25.735Z,90.15
2018-02-10T06:23:25.716Z,89.87
2018-02-10T06:24:25.701Z,89.68
2018-02-10T06:25:25.693Z,89.87
2018-02-10T06:26:25.713Z,89.77
2018-02-10T06:27:25.672Z,89.68
2018-02-10T06:28:25.678Z,89.68
2018-02-10T06:29:25.646Z,89.96
2018-02-10T06:30:25.636Z,89.96
2018-02-10T06:31:25.694Z,89.96
2018-02-10T06:32:25.615Z,89.96
2018-02-10T06:33:25.620Z,89.58
2018-02-10T06:34:25.624Z,89.68
2018-02-10T06:35:25.588Z,89.49
2018-02-10T06:36:25.598Z,89.87
2018-02-10T06:37:25.556Z,89.87
2018-02-10T06:38:25.545Z,89.87
2018-02-10T06:39:25.552Z,89.68
2018-02-10T06:40:25.548Z,90.44
2018-02-10T06:40:37.546Z,90.25
2018-02-10T06:42:25.503Z,89.96
2018-02-10T06:43:25.506Z,89.87
2018-02-10T06:44:25.504Z,90.15
2018-02-10T06:45:25.488Z,90.44
2018-02-10T06:46:25.464Z,90.53
2018-02-10T06:47:25.464Z,90.44
2018-02-10T06:48:25.482Z,90.25
2018-02-10T06:49:25.458Z,90.81
2018-02-10T06:50:25.433Z,90.53
2018-02-10T06:51:25.414Z,90.25
2018-02-10T06:52:25.415Z,90.34
2018-02-10T06:53:25.389Z,90.15
2018-02-10T06:54:25.405Z,90.34
2018-02-10T06:55:25.378Z,89.87
2018-02-10T06:56:25.376Z,90.34
2018-02-10T06:57:25.357Z,89.96
2018-02-10T06:58:25.352Z,90.25
2018-02-10T06:59:25.342Z,90.06
2018-02-10T07:00:25.323Z,90.25
2018-02-10T07:01:25.332Z,90.15
2018-02-10T07:02:25.297Z,90.06
2018-02-10T07:03:25.284Z,89.87
2018-02-10T07:04:25.293Z,90.06
2018-02-10T07:05:25.290Z,89.87
2018-02-10T07:06:25.254Z,90.29
2018-02-10T07:07:25.261Z,90.29
2018-02-10T07:08:25.245Z,90.25
2018-02-10T07:09:25.226Z,90.10
2018-02-10T07:10:25.214Z,90.25
2018-02-10T07:11:25.214Z,90.25
2018-02-10T07:12:25.189Z,90.29
2018-02-10T07:13:25.187Z,90.06
2018-02-10T07:14:25.169Z,90.06
2018-02-10T07:15:25.164Z,90.20
2018-02-10T07:16:25.154Z,90.29
2018-02-10T07:17:25.178Z,90.48
2018-02-10T07:18:25.132Z,89.68
2018-02-10T07:19:25.181Z,90.29
2018-02-10T07:20:25.119Z,90.06
2018-02-10T07:21:25.102Z,90.44
2018-02-10T07:22:25.090Z,90.81
2018-02-10T07:23:25.084Z,90.81
2018-02-10T07:24:25.081Z,91.00
2018-02-10T07:24:37.058Z,90.63
2018-02-10T07:26:25.068Z,90.91
2018-02-10T07:27:25.038Z,90.44
2018-02-10T07:28:25.036Z,90.91
2018-02-10T07:29:25.031Z,90.67
2018-02-10T07:30:25.008Z,90.81
2018-02-10T07:31:25.025Z,90.86
2018-02-10T07:32:24.997Z,90.58
2018-02-10T07:33:24.972Z,90.95
2018-02-10T07:34:25.003Z,90.86
2018-02-10T07:35:24.949Z,90.95
2018-02-10T07:36:24.970Z,90.95
2018-02-10T07:37:24.948Z,90.77
2018-02-10T07:38:24.969Z,90.48
2018-02-10T07:39:24.908Z,90.48
2018-02-10T07:40:24.909Z,90.39
2018-02-10T07:41:24.896Z,89.91
2018-02-10T07:42:24.876Z,90.29
2018-02-10T07:43:24.885Z,90.10
2018-02-10T07:44:25.963Z,90.39
2018-02-10T07:45:25.013Z,90.29
2018-02-10T07:46:25.900Z,90.29
2018-02-10T07:47:24.918Z,90.48
2018-02-10T07:48:24.832Z,89.82
2018-02-10T07:49:24.821Z,89.82
2018-02-10T07:50:24.894Z,89.72
2018-02-10T07:51:24.800Z,89.63
2018-02-10T07:52:26.170Z,89.63
2018-02-10T07:53:25.370Z,89.53
2018-02-10T07:54:26.089Z,89.53
2018-02-10T07:55:24.790Z,89.91
2018-02-10T07:56:24.959Z,89.53
2018-02-10T07:57:24.731Z,89.63
2018-02-10T07:58:24.742Z,90.01
2018-02-10T07:59:24.707Z,88.96
2018-02-10T08:00:24.721Z,89.15
2018-02-10T08:01:24.700Z,89.34
2018-02-10T08:02:24.678Z,89.25
2018-02-10T08:03:24.684Z,88.78
2018-02-10T08:04:24.655Z,89.15
2018-02-10T08:05:24.655Z,88.87
2018-02-10T08:06:24.666Z,88.78
2018-02-10T08:07:24.652Z,88.59
2018-02-10T08:08:24.633Z,88.78
2018-02-10T08:09:24.641Z,88.96
2018-02-10T08:10:24.595Z,88.59
2018-02-10T08:11:24.631Z,88.40
2018-02-10T08:12:24.601Z,88.11
2018-02-10T08:13:24.564Z,88.11
2018-02-10T08:14:24.561Z,87.73
2018-02-10T08:15:24.553Z,87.73
2018-02-10T08:16:24.560Z,87.73
2018-02-10T08:17:24.533Z,87.83
2018-02-10T08:18:24.546Z,87.83
2018-02-10T08:19:24.540Z,87.92
2018-02-10T08:20:24.555Z,87.83
2018-02-10T08:21:24.526Z,88.02
2018-02-10T08:22:24.490Z,87.92
2018-02-10T08:23:24.482Z,87.35
2018-02-10T08:24:24.455Z,87.73
2018-02-10T08:25:24.485Z,87.49
2018-02-10T08:26:24.443Z,87.30
2018-02-10T08:27:24.437Z,87.45
2018-02-10T08:28:24.444Z,87.49
2018-02-10T08:29:24.425Z,87.59
2018-02-10T08:30:24.544Z,87.49
2018-02-10T08:31:24.385Z,88.35
2018-02-10T08:32:24.395Z,88.73
2018-02-10T08:33:24.366Z,89.20
2018-02-10T08:34:24.400Z,89.96
2018-02-10T08:35:24.349Z,88.92
2018-02-10T08:36:24.352Z,89.20
2018-02-10T08:37:24.331Z,89.20
2018-02-10T08:38:24.318Z,88.82
2018-02-10T08:39:24.322Z,88.54
2018-02-10T08:40:24.330Z,88.54
2018-02-10T08:41:24.301Z,87.87
2018-02-10T08:42:24.286Z,88.35
2018-02-10T08:43:24.320Z,88.54
2018-02-10T08:44:24.292Z,88.73
2018-02-10T08:45:24.318Z,88.25
2018-02-10T08:46:24.268Z,87.35
2018-02-10T08:47:24.230Z,87.25
2018-02-10T08:48:24.282Z,87.45
2018-02-10T08:49:24.298Z,86.30
2018-02-10T08:50:24.196Z,85.55
2018-02-10T08:51:24.205Z,86.11
2018-02-10T08:52:24.184Z,85.74
2018-02-10T08:53:24.169Z,85.74
2018-02-10T08:54:24.194Z,85.26
2018-02-10T08:55:24.145Z,85.83
2018-02-10T08:56:24.166Z,86.02
2018-02-10T08:57:24.135Z,85.17
2018-02-10T08:58:24.127Z,85.36
2018-02-10T08:59:24.114Z,85.36
2018-02-10T09:00:24.097Z,85.26
2018-02-10T09:01:24.107Z,85.36
2018-02-10T09:02:24.078Z,85.36
2018-02-10T09:03:24.072Z,85.17
2018-02-10T09:04:24.065Z,85.55
2018-02-10T09:05:24.064Z,85.36
2018-02-10T09:06:24.040Z,85.45
2018-02-10T09:07:24.043Z,85.17
2018-02-10T09:08:24.052Z,84.98
2018-02-10T09:09:24.019Z,85.36
2018-02-10T09:10:24.012Z,85.45
2018-02-10T09:11:24.014Z,85.36
2018-02-10T09:12:24.000Z,84.98
2018-02-10T09:13:23.985Z,84.98
2018-02-10T09:14:24.059Z,85.36
2018-02-10T09:15:23.959Z,85.26
2018-02-10T09:16:23.967Z,85.36
2018-02-10T09:17:23.957Z,84.98
2018-02-10T09:18:24.052Z,85.26
2018-02-10T09:19:23.936Z,84.78
2018-02-10T09:20:23.990Z,85.45
2018-02-10T09:21:24.031Z,84.69
2018-02-10T09:22:23.888Z,84.98
2018-02-10T09:23:23.896Z,84.78
2018-02-10T09:24:23.893Z,85.07
2018-02-10T09:25:23.865Z,84.59
2018-02-10T09:26:23.865Z,84.69
2018-02-10T09:27:23.872Z,84.59
2018-02-10T09:28:23.855Z,84.59
2018-02-10T09:29:23.861Z,84.03
2018-02-10T09:30:23.838Z,84.31
2018-02-10T09:31:23.825Z,83.94
2018-02-10T09:32:23.802Z,83.94
2018-02-10T09:33:23.807Z,83.65
2018-02-10T09:34:23.799Z,83.46
2018-02-10T09:35:23.798Z,83.55
2018-02-10T09:36:23.796Z,83.36
2018-02-10T09:37:23.772Z,83.36
2018-02-10T09:38:23.753Z,83.46
2018-02-10T09:39:23.747Z,83.08
2018-02-10T09:40:23.741Z,83.36
2018-02-10T09:41:23.727Z,82.70
2018-02-10T09:42:23.728Z,82.89
2018-02-10T09:43:23.702Z,82.51
2018-02-10T09:44:23.702Z,82.51
2018-02-10T09:45:23.690Z,82.32
2018-02-10T09:46:23.682Z,82.93
2018-02-10T09:47:23.684Z,82.55
2018-02-10T09:48:23.702Z,82.65
2018-02-10T09:49:23.659Z,82.17
2018-02-10T09:50:23.692Z,82.08
2018-02-10T09:51:23.663Z,81.88
2018-02-10T09:52:23.643Z,81.79
2018-02-10T09:53:23.617Z,81.79
2018-02-10T09:54:23.657Z,82.08
2018-02-10T09:55:23.612Z,81.41
2018-02-10T09:56:23.594Z,81.60
2018-02-10T09:57:23.632Z,82.27
2018-02-10T09:58:23.578Z,82.08
2018-02-10T09:59:23.590Z,82.65
2018-02-10T10:00:23.565Z,82.74
2018-02-10T10:01:23.553Z,82.27
2018-02-10T10:02:23.542Z,82.55
2018-02-10T10:03:23.560Z,82.36
2018-02-10T10:04:23.574Z,81.98
2018-02-10T10:05:23.534Z,81.41
2018-02-10T10:06:23.507Z,81.23
2018-02-10T10:07:23.508Z,81.04
2018-02-10T10:08:23.511Z,81.04
2018-02-10T10:09:23.495Z,81.04
2018-02-10T10:10:23.493Z,81.13
2018-02-10T10:11:23.506Z,81.04
2018-02-10T10:12:23.474Z,81.04
2018-02-10T10:13:23.467Z,80.75
2018-02-10T10:14:23.466Z,80.65
2018-02-10T10:15:23.446Z,81.04
2018-02-10T10:16:23.440Z,81.13
2018-02-10T10:17:23.446Z,80.18
2018-02-10T10:18:23.446Z,80.08
2018-02-10T10:19:23.395Z,80.46
2018-02-10T10:20:23.402Z,79.65
2018-02-10T10:21:23.388Z,79.84
2018-02-10T10:22:23.420Z,80.41
2018-02-10T10:23:23.370Z,80.22
2018-02-10T10:24:23.407Z,79.65
2018-02-10T10:25:23.352Z,79.84
2018-02-10T10:26:23.386Z,80.32
2018-02-10T10:27:23.339Z,80.51
2018-02-10T10:28:23.332Z,79.94
2018-02-10T10:29:23.330Z,79.65
2018-02-10T10:30:23.330Z,79.36
2018-02-10T10:31:23.328Z,78.70
2018-02-10T10:32:23.301Z,78.61
2018-02-10T10:33:23.296Z,78.61
2018-02-10T10:34:23.281Z,78.42
2018-02-10T10:35:23.274Z,78.83
2018-02-10T10:36:23.274Z,77.89
2018-02-10T10:37:23.303Z,77.89
2018-02-10T10:38:23.293Z,78.27
2018-02-10T10:39:23.285Z,78.08
2018-02-10T10:40:23.240Z,77.70
2018-02-10T10:41:23.242Z,77.79
2018-02-10T10:42:23.251Z,78.36
2018-02-10T10:43:23.226Z,77.70
2018-02-10T10:44:23.209Z,77.22
2018-02-10T10:45:23.223Z,76.75
2018-02-10T10:46:23.197Z,76.75
2018-02-10T10:47:23.200Z,76.46
2018-02-10T10:48:23.177Z,76.56
2018-02-10T10:49:23.174Z,75.99
2018-02-10T10:50:23.198Z,75.51
2018-02-10T10:51:23.202Z,75.89
2018-02-10T10:52:23.156Z,75.36
2018-02-10T10:53:23.199Z,75.36
2018-02-10T10:54:23.134Z,76.21
2018-02-10T10:55:23.144Z,75.84
2018-02-10T10:56:23.172Z,76.21
2018-02-10T10:57:23.179Z,75.84
2018-02-10T10:58:23.138Z,75.17
2018-02-10T10:59:23.119Z,74.79
2018-02-10T11:00:23.141Z,74.31
2018-02-10T11:01:23.124Z,74.03
2018-02-10T11:02:23.082Z,73.74
2018-02-10T11:03:23.101Z,74.22
2018-02-10T11:04:23.083Z,74.31
2018-02-10T11:05:23.087Z,74.41
2018-02-10T11:06:23.122Z,74.79
2018-02-10T11:07:23.060Z,74.60
2018-02-10T11:08:23.044Z,74.88
2018-02-10T11:09:23.052Z,74.79
2018-02-10T11:10:23.072Z,75.07
2018-02-10T11:11:23.016Z,75.07
2018-02-10T11:12:23.032Z,74.51
2018-02-10T11:13:23.018Z,73.93
2018-02-10T11:14:23.034Z,74.22
2018-02-10T11:15:22.995Z,74.60
2018-02-10T11:16:23.014Z,75.07
2018-02-10T11:17:23.027Z,75.74
2018-02-10T11:18:22.986Z,75.93
2018-02-10T11:19:22.980Z,76.88
2018-02-10T11:20:22.988Z,77.07
2018-02-10T11:21:22.963Z,77.45
2018-02-10T11:22:22.951Z,77.83
2018-02-10T11:23:22.956Z,78.11
2018-02-10T11:24:22.962Z,78.97
2018-02-10T11:25:22.966Z,78.78
2018-02-10T11:26:22.985Z,79.16
2018-02-10T11:27:22.958Z,79.25
2018-02-10T11:28:22.980Z,79.73
2018-02-10T11:29:22.923Z,79.35
2018-02-10T11:30:22.904Z,79.73
2018-02-10T11:31:22.884Z,79.63
2018-02-10T11:32:22.891Z,79.35
2018-02-10T11:33:22.891Z,79.25
2018-02-10T11:34:22.861Z,79.25
2018-02-10T11:35:22.892Z,79.44
2018-02-10T11:36:22.857Z,79.92
2018-02-10T11:37:22.861Z,79.54
2018-02-10T11:38:22.848Z,80.11
2018-02-10T11:39:22.827Z,80.11
2018-02-10T11:40:22.833Z,80.11
2018-02-10T11:41:22.819Z,80.02
2018-02-10T11:42:22.888Z,79.92
2018-02-10T11:43:22.830Z,78.69
2018-02-10T11:44:22.810Z,78.59
2018-02-10T11:45:22.814Z,78.69
2018-02-10T11:46:22.782Z,78.69
2018-02-10T11:47:22.805Z,78.59
2018-02-10T11:48:22.788Z,78.69
2018-02-10T11:49:22.776Z,78.97
2018-02-10T11:50:22.751Z,78.88
2018-02-10T11:51:22.742Z,78.88
2018-02-10T11:52:22.741Z,79.16
2018-02-10T11:53:22.742Z,79.60
2018-02-10T11:54:22.721Z,79.60
2018-02-10T11:55:22.707Z,79.25
2018-02-10T11:56:22.719Z,79.35
2018-02-10T11:57:22.705Z,79.83
2018-02-10T11:58:22.707Z,79.83
2018-02-10T11:59:22.697Z,79.63
2018-02-10T12:00:22.717Z,79.63
2018-02-10T12:01:22.690Z,79.92
2018-02-10T12:02:22.674Z,79.63
2018-02-10T12:03:22.663Z,79.35
2018-02-10T12:04:22.651Z,79.44
2018-02-10T12:05:22.645Z,79.35
2018-02-10T12:06:22.647Z,79.54
2018-02-10T12:07:22.630Z,78.78
2018-02-10T12:08:22.630Z,78.69
2018-02-10T12:09:22.628Z,78.59
2018-02-10T12:10:22.622Z,78.93
2018-02-10T12:11:22.592Z,78.74
2018-02-10T12:12:22.594Z,78.45
2018-02-10T12:13:22.601Z,78.74
2018-02-10T12:14:22.601Z,78.74
2018-02-10T12:15:22.599Z,78.93
2018-02-10T12:16:22.584Z,79.31
2018-02-10T12:17:22.566Z,78.83
2018-02-10T12:18:22.547Z,78.55
2018-02-10T12:19:22.562Z,78.74
2018-02-10T12:20:22.546Z,78.45
2018-02-10T12:21:22.551Z,78.55
2018-02-10T12:22:22.521Z,79.31
2018-02-10T12:23:22.510Z,79.50
2018-02-10T12:24:22.516Z,78.36
2018-02-10T12:25:22.527Z,78.55
2018-02-10T12:26:22.524Z,78.93
2018-02-10T12:27:22.505Z,78.93
2018-02-10T12:28:22.519Z,78.83
2018-02-10T12:29:22.502Z,78.74
2018-02-10T12:30:22.466Z,78.45
2018-02-10T12:31:22.460Z,78.64
2018-02-10T12:32:22.465Z,78.74
2018-02-10T12:33:22.493Z,78.83
2018-02-10T12:34:22.458Z,79.50
2018-02-10T12:35:22.444Z,79.41
2018-02-10T12:36:22.412Z,79.41
2018-02-10T12:37:22.421Z,79.41
2018-02-10T12:38:22.460Z,79.50
2018-02-10T12:39:22.407Z,79.12
2018-02-10T12:40:23.909Z,79.31
2018-02-10T12:41:22.424Z,79.50
2018-02-10T12:42:23.989Z,79.31
2018-02-10T12:43:23.897Z,79.88
2018-02-10T12:44:22.454Z,80.26
2018-02-10T12:45:25.927Z,79.97
2018-02-10T12:46:23.909Z,80.26
2018-02-10T12:47:22.335Z,79.50
2018-02-10T12:48:22.336Z,79.60
2018-02-10T12:49:22.378Z,78.93
2018-02-10T12:50:22.317Z,79.50
2018-02-10T12:51:22.317Z,78.64
2018-02-10T12:52:22.312Z,78.64